sensor_id;sensor_type;location;lat;lon;timestamp;P1;durP1;ratioP1;P2;durP2;ratioP2
55601;SDS011;59921;51.332;12.410;2023-04-26T00:00:21;1.60;;;1.20;;
55601;SDS011;59921;51.332;12.410;2023-04-26T00:02:47;1.30;;;1.00;;
55601;SDS011;59921;51.332;12.410;2023-04-26T00:05:13;1.83;;;1.08;;
55601;SDS011;59921;51.332;12.410;2023-04-26T00:07:41;1.27;;;1.00;;
55601;SDS011;59921;51.332;12.410;2023-04-26T00:10:07;1.30;;;1.05;;
55601;SDS011;59921;51.332;12.410;2023-04-26T00:12:34;2.03;;;1.10;;
55601;SDS011;59921;51.332;12.410;2023-04-26T00:15:01;1.88;;;1.17;;
55601;SDS011;59921;51.332;12.410;2023-04-26T00:17:30;1.20;;;0.90;;
55601;SDS011;59921;51.332;12.410;2023-04-26T00:19:56;1.30;;;1.02;;
55601;SDS011;59921;51.332;12.410;2023-04-26T00:22:22;2.05;;;1.13;;
55601;SDS011;59921;51.332;12.410;2023-04-26T00:24:49;1.33;;;0.90;;
55601;SDS011;59921;51.332;12.410;2023-04-26T00:27:15;1.90;;;1.10;;
55601;SDS011;59921;51.332;12.410;2023-04-26T00:29:41;1.40;;;1.10;;
55601;SDS011;59921;51.332;12.410;2023-04-26T00:32:07;1.85;;;1.20;;
55601;SDS011;59921;51.332;12.410;2023-04-26T00:34:33;1.00;;;0.90;;
55601;SDS011;59921;51.332;12.410;2023-04-26T00:37:00;1.35;;;1.00;;
55601;SDS011;59921;51.332;12.410;2023-04-26T00:39:25;1.40;;;1.20;;
55601;SDS011;59921;51.332;12.410;2023-04-26T00:41:51;1.75;;;1.20;;
55601;SDS011;59921;51.332;12.410;2023-04-26T00:44:17;1.35;;;1.00;;
55601;SDS011;59921;51.332;12.410;2023-04-26T00:46:43;1.45;;;1.00;;
55601;SDS011;59921;51.332;12.410;2023-04-26T00:49:09;1.52;;;1.00;;
55601;SDS011;59921;51.332;12.410;2023-04-26T00:51:40;1.45;;;0.90;;
55601;SDS011;59921;51.332;12.410;2023-04-26T00:54:06;1.10;;;1.00;;
55601;SDS011;59921;51.332;12.410;2023-04-26T00:56:32;1.42;;;1.00;;
55601;SDS011;59921;51.332;12.410;2023-04-26T00:59:00;1.70;;;0.90;;
55601;SDS011;59921;51.332;12.410;2023-04-26T01:01:27;1.20;;;1.10;;
55601;SDS011;59921;51.332;12.410;2023-04-26T01:03:53;1.48;;;1.00;;
55601;SDS011;59921;51.332;12.410;2023-04-26T01:06:19;1.02;;;0.90;;
55601;SDS011;59921;51.332;12.410;2023-04-26T01:08:45;1.55;;;1.13;;
55601;SDS011;59921;51.332;12.410;2023-04-26T01:11:11;1.00;;;0.90;;
55601;SDS011;59921;51.332;12.410;2023-04-26T01:13:37;1.30;;;0.90;;
55601;SDS011;59921;51.332;12.410;2023-04-26T01:16:02;1.20;;;0.88;;
55601;SDS011;59921;51.332;12.410;2023-04-26T01:18:29;1.55;;;1.00;;
55601;SDS011;59921;51.332;12.410;2023-04-26T01:20:54;1.10;;;0.98;;
55601;SDS011;59921;51.332;12.410;2023-04-26T01:23:21;1.25;;;0.90;;
55601;SDS011;59921;51.332;12.410;2023-04-26T01:25:47;1.25;;;1.00;;
55601;SDS011;59921;51.332;12.410;2023-04-26T01:28:12;1.00;;;0.80;;
55601;SDS011;59921;51.332;12.410;2023-04-26T01:30:38;0.95;;;0.85;;
55601;SDS011;59921;51.332;12.410;2023-04-26T01:33:03;1.27;;;1.00;;
55601;SDS011;59921;51.332;12.410;2023-04-26T01:35:29;1.05;;;0.80;;
55601;SDS011;59921;51.332;12.410;2023-04-26T01:37:55;1.45;;;1.00;;
55601;SDS011;59921;51.332;12.410;2023-04-26T01:40:20;1.25;;;0.95;;
55601;SDS011;59921;51.332;12.410;2023-04-26T01:42:46;1.80;;;1.08;;
55601;SDS011;59921;51.332;12.410;2023-04-26T01:45:14;1.30;;;0.90;;
55601;SDS011;59921;51.332;12.410;2023-04-26T01:47:41;1.00;;;0.90;;
55601;SDS011;59921;51.332;12.410;2023-04-26T01:50:07;1.40;;;1.00;;
55601;SDS011;59921;51.332;12.410;2023-04-26T01:52:33;1.00;;;0.90;;
55601;SDS011;59921;51.332;12.410;2023-04-26T01:54:59;1.15;;;0.98;;
55601;SDS011;59921;51.332;12.410;2023-04-26T01:57:25;1.10;;;0.93;;
55601;SDS011;59921;51.332;12.410;2023-04-26T01:59:50;1.20;;;0.77;;
55601;SDS011;59921;51.332;12.410;2023-04-26T02:02:16;1.75;;;0.95;;
55601;SDS011;59921;51.332;12.410;2023-04-26T02:04:42;1.92;;;0.90;;
55601;SDS011;59921;51.332;12.410;2023-04-26T02:07:08;1.10;;;0.90;;
55601;SDS011;59921;51.332;12.410;2023-04-26T02:09:33;1.50;;;1.00;;
55601;SDS011;59921;51.332;12.410;2023-04-26T02:11:59;1.50;;;1.10;;
55601;SDS011;59921;51.332;12.410;2023-04-26T02:14:24;1.00;;;0.90;;
55601;SDS011;59921;51.332;12.410;2023-04-26T02:16:50;1.30;;;0.90;;
55601;SDS011;59921;51.332;12.410;2023-04-26T02:19:16;0.70;;;0.60;;
55601;SDS011;59921;51.332;12.410;2023-04-26T02:21:51;1.40;;;1.00;;
55601;SDS011;59921;51.332;12.410;2023-04-26T02:24:21;0.93;;;0.80;;
55601;SDS011;59921;51.332;12.410;2023-04-26T02:26:50;1.30;;;0.80;;
55601;SDS011;59921;51.332;12.410;2023-04-26T02:29:17;0.85;;;0.82;;
55601;SDS011;59921;51.332;12.410;2023-04-26T02:31:42;0.93;;;0.80;;
55601;SDS011;59921;51.332;12.410;2023-04-26T02:34:08;0.88;;;0.80;;
55601;SDS011;59921;51.332;12.410;2023-04-26T02:36:34;1.17;;;1.00;;
55601;SDS011;59921;51.332;12.410;2023-04-26T02:38:59;0.73;;;0.70;;
55601;SDS011;59921;51.332;12.410;2023-04-26T02:41:25;1.10;;;0.88;;
55601;SDS011;59921;51.332;12.410;2023-04-26T02:43:50;1.33;;;0.73;;
55601;SDS011;59921;51.332;12.410;2023-04-26T02:46:16;0.95;;;0.70;;
55601;SDS011;59921;51.332;12.410;2023-04-26T02:48:42;1.00;;;0.70;;
55601;SDS011;59921;51.332;12.410;2023-04-26T02:51:08;1.52;;;0.90;;
55601;SDS011;59921;51.332;12.410;2023-04-26T02:53:33;1.73;;;0.95;;
55601;SDS011;59921;51.332;12.410;2023-04-26T02:55:59;1.38;;;0.80;;
55601;SDS011;59921;51.332;12.410;2023-04-26T02:58:25;1.02;;;0.77;;
55601;SDS011;59921;51.332;12.410;2023-04-26T03:00:50;1.05;;;0.80;;
55601;SDS011;59921;51.332;12.410;2023-04-26T03:03:18;1.20;;;0.80;;
55601;SDS011;59921;51.332;12.410;2023-04-26T03:05:44;0.80;;;0.70;;
55601;SDS011;59921;51.332;12.410;2023-04-26T03:08:10;1.35;;;1.00;;
55601;SDS011;59921;51.332;12.410;2023-04-26T03:10:35;0.80;;;0.70;;
55601;SDS011;59921;51.332;12.410;2023-04-26T03:13:01;0.80;;;0.70;;
55601;SDS011;59921;51.332;12.410;2023-04-26T03:15:28;1.02;;;0.90;;
55601;SDS011;59921;51.332;12.410;2023-04-26T03:17:54;0.68;;;0.68;;
55601;SDS011;59921;51.332;12.410;2023-04-26T03:20:19;1.23;;;0.82;;
55601;SDS011;59921;51.332;12.410;2023-04-26T03:22:45;1.30;;;0.98;;
55601;SDS011;59921;51.332;12.410;2023-04-26T03:25:10;0.95;;;0.65;;
55601;SDS011;59921;51.332;12.410;2023-04-26T03:27:37;1.30;;;0.75;;
55601;SDS011;59921;51.332;12.410;2023-04-26T03:30:02;0.75;;;0.73;;
55601;SDS011;59921;51.332;12.410;2023-04-26T03:32:29;1.38;;;0.90;;
55601;SDS011;59921;51.332;12.410;2023-04-26T03:34:55;1.25;;;0.80;;
55601;SDS011;59921;51.332;12.410;2023-04-26T03:37:20;1.70;;;0.95;;
55601;SDS011;59921;51.332;12.410;2023-04-26T03:39:46;0.90;;;0.70;;
55601;SDS011;59921;51.332;12.410;2023-04-26T03:42:12;1.08;;;0.70;;
55601;SDS011;59921;51.332;12.410;2023-04-26T03:44:37;0.93;;;0.70;;
55601;SDS011;59921;51.332;12.410;2023-04-26T03:47:03;1.50;;;0.80;;
55601;SDS011;59921;51.332;12.410;2023-04-26T03:49:29;0.70;;;0.63;;
55601;SDS011;59921;51.332;12.410;2023-04-26T03:51:55;0.85;;;0.70;;
55601;SDS011;59921;51.332;12.410;2023-04-26T03:54:20;0.70;;;0.70;;
55601;SDS011;59921;51.332;12.410;2023-04-26T03:56:46;0.82;;;0.73;;
55601;SDS011;59921;51.332;12.410;2023-04-26T03:59:12;0.80;;;0.80;;
55601;SDS011;59921;51.332;12.410;2023-04-26T04:01:37;1.60;;;0.80;;
55601;SDS011;59921;51.332;12.410;2023-04-26T04:04:03;0.75;;;0.60;;
55601;SDS011;59921;51.332;12.410;2023-04-26T04:06:28;1.10;;;0.80;;
55601;SDS011;59921;51.332;12.410;2023-04-26T04:08:54;0.70;;;0.70;;
55601;SDS011;59921;51.332;12.410;2023-04-26T04:11:19;0.73;;;0.73;;
55601;SDS011;59921;51.332;12.410;2023-04-26T04:13:45;1.25;;;0.70;;
55601;SDS011;59921;51.332;12.410;2023-04-26T04:16:11;1.17;;;0.70;;
55601;SDS011;59921;51.332;12.410;2023-04-26T04:18:36;1.33;;;0.80;;
55601;SDS011;59921;51.332;12.410;2023-04-26T04:21:02;0.75;;;0.70;;
55601;SDS011;59921;51.332;12.410;2023-04-26T04:23:28;0.82;;;0.80;;
55601;SDS011;59921;51.332;12.410;2023-04-26T04:25:53;0.82;;;0.80;;
55601;SDS011;59921;51.332;12.410;2023-04-26T04:28:19;0.90;;;0.70;;
55601;SDS011;59921;51.332;12.410;2023-04-26T04:30:46;0.90;;;0.70;;
55601;SDS011;59921;51.332;12.410;2023-04-26T04:33:12;0.68;;;0.60;;
55601;SDS011;59921;51.332;12.410;2023-04-26T04:35:39;0.95;;;0.82;;
55601;SDS011;59921;51.332;12.410;2023-04-26T04:38:05;1.08;;;0.70;;
55601;SDS011;59921;51.332;12.410;2023-04-26T04:40:31;0.85;;;0.70;;
55601;SDS011;59921;51.332;12.410;2023-04-26T04:42:56;0.80;;;0.70;;
55601;SDS011;59921;51.332;12.410;2023-04-26T04:45:24;0.70;;;0.70;;
55601;SDS011;59921;51.332;12.410;2023-04-26T04:47:51;1.25;;;0.80;;
55601;SDS011;59921;51.332;12.410;2023-04-26T04:50:18;0.73;;;0.60;;
55601;SDS011;59921;51.332;12.410;2023-04-26T04:52:43;0.80;;;0.80;;
55601;SDS011;59921;51.332;12.410;2023-04-26T04:55:09;0.90;;;0.68;;
55601;SDS011;59921;51.332;12.410;2023-04-26T04:57:34;1.30;;;0.90;;
55601;SDS011;59921;51.332;12.410;2023-04-26T05:00:00;1.05;;;0.80;;
55601;SDS011;59921;51.332;12.410;2023-04-26T05:02:34;0.90;;;0.70;;
55601;SDS011;59921;51.332;12.410;2023-04-26T05:05:01;1.00;;;0.80;;
55601;SDS011;59921;51.332;12.410;2023-04-26T05:07:28;0.70;;;0.60;;
55601;SDS011;59921;51.332;12.410;2023-04-26T05:09:57;1.25;;;0.60;;
55601;SDS011;59921;51.332;12.410;2023-04-26T05:12:23;0.90;;;0.80;;
55601;SDS011;59921;51.332;12.410;2023-04-26T05:14:48;1.20;;;0.82;;
55601;SDS011;59921;51.332;12.410;2023-04-26T05:17:14;0.85;;;0.80;;
55601;SDS011;59921;51.332;12.410;2023-04-26T05:19:39;0.77;;;0.70;;
55601;SDS011;59921;51.332;12.410;2023-04-26T05:22:05;1.30;;;0.80;;
55601;SDS011;59921;51.332;12.410;2023-04-26T05:24:31;0.98;;;0.60;;
55601;SDS011;59921;51.332;12.410;2023-04-26T05:26:57;1.48;;;0.80;;
55601;SDS011;59921;51.332;12.410;2023-04-26T05:29:27;1.35;;;0.70;;
55601;SDS011;59921;51.332;12.410;2023-04-26T05:31:54;1.00;;;0.80;;
55601;SDS011;59921;51.332;12.410;2023-04-26T05:34:19;0.90;;;0.60;;
55601;SDS011;59921;51.332;12.410;2023-04-26T05:36:47;0.82;;;0.65;;
55601;SDS011;59921;51.332;12.410;2023-04-26T05:39:13;1.02;;;0.60;;
55601;SDS011;59921;51.332;12.410;2023-04-26T05:41:39;0.60;;;0.60;;
55601;SDS011;59921;51.332;12.410;2023-04-26T05:44:04;1.15;;;0.70;;
55601;SDS011;59921;51.332;12.410;2023-04-26T05:46:30;0.68;;;0.60;;
55601;SDS011;59921;51.332;12.410;2023-04-26T05:48:55;0.90;;;0.80;;
55601;SDS011;59921;51.332;12.410;2023-04-26T05:51:21;0.63;;;0.60;;
55601;SDS011;59921;51.332;12.410;2023-04-26T05:53:47;0.88;;;0.63;;
55601;SDS011;59921;51.332;12.410;2023-04-26T05:56:12;0.60;;;0.60;;
55601;SDS011;59921;51.332;12.410;2023-04-26T05:58:38;1.10;;;0.70;;
55601;SDS011;59921;51.332;12.410;2023-04-26T06:01:03;0.60;;;0.50;;
55601;SDS011;59921;51.332;12.410;2023-04-26T06:03:29;1.02;;;0.73;;
55601;SDS011;59921;51.332;12.410;2023-04-26T06:05:55;0.68;;;0.50;;
55601;SDS011;59921;51.332;12.410;2023-04-26T06:08:20;0.80;;;0.63;;
55601;SDS011;59921;51.332;12.410;2023-04-26T06:10:46;0.80;;;0.65;;
55601;SDS011;59921;51.332;12.410;2023-04-26T06:13:11;0.70;;;0.63;;
55601;SDS011;59921;51.332;12.410;2023-04-26T06:15:37;0.70;;;0.60;;
55601;SDS011;59921;51.332;12.410;2023-04-26T06:18:03;0.95;;;0.70;;
55601;SDS011;59921;51.332;12.410;2023-04-26T06:20:31;0.90;;;0.70;;
55601;SDS011;59921;51.332;12.410;2023-04-26T06:22:57;0.90;;;0.68;;
55601;SDS011;59921;51.332;12.410;2023-04-26T06:25:22;0.60;;;0.60;;
55601;SDS011;59921;51.332;12.410;2023-04-26T06:27:48;0.98;;;0.60;;
55601;SDS011;59921;51.332;12.410;2023-04-26T06:30:13;1.20;;;0.80;;
55601;SDS011;59921;51.332;12.410;2023-04-26T06:32:40;0.95;;;0.57;;
55601;SDS011;59921;51.332;12.410;2023-04-26T06:35:06;1.20;;;0.70;;
55601;SDS011;59921;51.332;12.410;2023-04-26T06:37:33;0.60;;;0.60;;
55601;SDS011;59921;51.332;12.410;2023-04-26T06:39:59;0.60;;;0.60;;
55601;SDS011;59921;51.332;12.410;2023-04-26T06:42:26;0.50;;;0.50;;
55601;SDS011;59921;51.332;12.410;2023-04-26T06:44:51;1.33;;;0.77;;
55601;SDS011;59921;51.332;12.410;2023-04-26T06:47:17;0.75;;;0.63;;
55601;SDS011;59921;51.332;12.410;2023-04-26T06:49:43;0.93;;;0.60;;
55601;SDS011;59921;51.332;12.410;2023-04-26T06:52:08;0.68;;;0.60;;
55601;SDS011;59921;51.332;12.410;2023-04-26T06:54:34;0.60;;;0.60;;
55601;SDS011;59921;51.332;12.410;2023-04-26T06:56:59;0.70;;;0.55;;
55601;SDS011;59921;51.332;12.410;2023-04-26T06:59:25;0.73;;;0.68;;
55601;SDS011;59921;51.332;12.410;2023-04-26T07:01:51;0.40;;;0.40;;
55601;SDS011;59921;51.332;12.410;2023-04-26T07:04:18;0.60;;;0.50;;
55601;SDS011;59921;51.332;12.410;2023-04-26T07:06:44;0.95;;;0.73;;
55601;SDS011;59921;51.332;12.410;2023-04-26T07:09:11;0.70;;;0.52;;
55601;SDS011;59921;51.332;12.410;2023-04-26T07:11:37;0.80;;;0.63;;
55601;SDS011;59921;51.332;12.410;2023-04-26T07:14:06;0.80;;;0.60;;
55601;SDS011;59921;51.332;12.410;2023-04-26T07:16:31;1.00;;;0.60;;
55601;SDS011;59921;51.332;12.410;2023-04-26T07:18:57;1.02;;;0.70;;
55601;SDS011;59921;51.332;12.410;2023-04-26T07:21:23;0.77;;;0.50;;
55601;SDS011;59921;51.332;12.410;2023-04-26T07:23:55;0.85;;;0.70;;
55601;SDS011;59921;51.332;12.410;2023-04-26T07:26:21;0.68;;;0.63;;
55601;SDS011;59921;51.332;12.410;2023-04-26T07:28:47;0.70;;;0.60;;
55601;SDS011;59921;51.332;12.410;2023-04-26T07:31:14;0.80;;;0.70;;
55601;SDS011;59921;51.332;12.410;2023-04-26T07:33:40;1.48;;;0.70;;
55601;SDS011;59921;51.332;12.410;2023-04-26T07:36:07;0.80;;;0.60;;
55601;SDS011;59921;51.332;12.410;2023-04-26T07:38:33;0.65;;;0.50;;
55601;SDS011;59921;51.332;12.410;2023-04-26T07:40:58;0.55;;;0.55;;
55601;SDS011;59921;51.332;12.410;2023-04-26T07:43:26;0.75;;;0.60;;
55601;SDS011;59921;51.332;12.410;2023-04-26T07:45:52;0.65;;;0.60;;
55601;SDS011;59921;51.332;12.410;2023-04-26T07:48:18;0.60;;;0.60;;
55601;SDS011;59921;51.332;12.410;2023-04-26T07:50:43;0.80;;;0.50;;
55601;SDS011;59921;51.332;12.410;2023-04-26T07:53:09;0.63;;;0.60;;
55601;SDS011;59921;51.332;12.410;2023-04-26T07:55:35;0.60;;;0.57;;
55601;SDS011;59921;51.332;12.410;2023-04-26T07:58:02;0.60;;;0.50;;
55601;SDS011;59921;51.332;12.410;2023-04-26T08:00:28;1.00;;;0.60;;
55601;SDS011;59921;51.332;12.410;2023-04-26T08:02:53;0.60;;;0.60;;
55601;SDS011;59921;51.332;12.410;2023-04-26T08:05:19;0.70;;;0.55;;
55601;SDS011;59921;51.332;12.410;2023-04-26T08:07:45;0.52;;;0.50;;
55601;SDS011;59921;51.332;12.410;2023-04-26T08:10:10;0.60;;;0.50;;
55601;SDS011;59921;51.332;12.410;2023-04-26T08:12:36;1.00;;;0.70;;
55601;SDS011;59921;51.332;12.410;2023-04-26T08:15:03;1.00;;;0.70;;
55601;SDS011;59921;51.332;12.410;2023-04-26T08:17:29;0.60;;;0.60;;
55601;SDS011;59921;51.332;12.410;2023-04-26T08:19:56;0.80;;;0.55;;
55601;SDS011;59921;51.332;12.410;2023-04-26T08:22:22;0.77;;;0.60;;
55601;SDS011;59921;51.332;12.410;2023-04-26T08:24:48;0.77;;;0.60;;
55601;SDS011;59921;51.332;12.410;2023-04-26T08:27:17;0.77;;;0.57;;
55601;SDS011;59921;51.332;12.410;2023-04-26T08:29:45;0.75;;;0.60;;
55601;SDS011;59921;51.332;12.410;2023-04-26T08:32:11;0.90;;;0.60;;
55601;SDS011;59921;51.332;12.410;2023-04-26T08:34:37;0.65;;;0.52;;
55601;SDS011;59921;51.332;12.410;2023-04-26T08:37:02;0.80;;;0.60;;
55601;SDS011;59921;51.332;12.410;2023-04-26T08:39:29;0.73;;;0.50;;
55601;SDS011;59921;51.332;12.410;2023-04-26T08:41:54;0.77;;;0.50;;
55601;SDS011;59921;51.332;12.410;2023-04-26T08:44:23;0.68;;;0.52;;
55601;SDS011;59921;51.332;12.410;2023-04-26T08:46:53;0.50;;;0.50;;
55601;SDS011;59921;51.332;12.410;2023-04-26T08:52:29;1.02;;;0.63;;
55601;SDS011;59921;51.332;12.410;2023-04-26T08:54:56;0.60;;;0.55;;
55601;SDS011;59921;51.332;12.410;2023-04-26T08:57:26;0.63;;;0.63;;
55601;SDS011;59921;51.332;12.410;2023-04-26T08:59:52;1.27;;;0.60;;
55601;SDS011;59921;51.332;12.410;2023-04-26T09:02:20;0.63;;;0.63;;
55601;SDS011;59921;51.332;12.410;2023-04-26T09:04:47;0.85;;;0.70;;
55601;SDS011;59921;51.332;12.410;2023-04-26T09:07:26;0.60;;;0.50;;
55601;SDS011;59921;51.332;12.410;2023-04-26T09:09:53;0.80;;;0.52;;
55601;SDS011;59921;51.332;12.410;2023-04-26T09:12:21;0.73;;;0.52;;
55601;SDS011;59921;51.332;12.410;2023-04-26T09:14:47;0.60;;;0.50;;
55601;SDS011;59921;51.332;12.410;2023-04-26T09:19:58;0.40;;;0.40;;
55601;SDS011;59921;51.332;12.410;2023-04-26T09:24:57;0.80;;;0.70;;
55601;SDS011;59921;51.332;12.410;2023-04-26T09:30:07;0.82;;;0.70;;
55601;SDS011;59921;51.332;12.410;2023-04-26T09:32:47;0.85;;;0.65;;
55601;SDS011;59921;51.332;12.410;2023-04-26T09:38:03;1.02;;;0.60;;
55601;SDS011;59921;51.332;12.410;2023-04-26T09:40:34;0.55;;;0.50;;
55601;SDS011;59921;51.332;12.410;2023-04-26T09:43:02;0.93;;;0.60;;
55601;SDS011;59921;51.332;12.410;2023-04-26T09:45:29;0.60;;;0.60;;
55601;SDS011;59921;51.332;12.410;2023-04-26T09:48:12;0.75;;;0.55;;
55601;SDS011;59921;51.332;12.410;2023-04-26T09:50:43;0.75;;;0.50;;
55601;SDS011;59921;51.332;12.410;2023-04-26T09:56:10;0.70;;;0.60;;
55601;SDS011;59921;51.332;12.410;2023-04-26T09:58:38;0.80;;;0.50;;
55601;SDS011;59921;51.332;12.410;2023-04-26T10:01:25;0.77;;;0.60;;
55601;SDS011;59921;51.332;12.410;2023-04-26T10:03:54;0.82;;;0.60;;
55601;SDS011;59921;51.332;12.410;2023-04-26T10:06:20;0.93;;;0.50;;
55601;SDS011;59921;51.332;12.410;2023-04-26T10:08:46;0.90;;;0.60;;
55601;SDS011;59921;51.332;12.410;2023-04-26T10:11:11;0.77;;;0.60;;
55601;SDS011;59921;51.332;12.410;2023-04-26T10:13:38;0.70;;;0.50;;
55601;SDS011;59921;51.332;12.410;2023-04-26T10:16:05;0.95;;;0.50;;
55601;SDS011;59921;51.332;12.410;2023-04-26T10:18:31;0.60;;;0.50;;
55601;SDS011;59921;51.332;12.410;2023-04-26T10:23:47;0.65;;;0.60;;
55601;SDS011;59921;51.332;12.410;2023-04-26T10:29:11;0.50;;;0.50;;
55601;SDS011;59921;51.332;12.410;2023-04-26T10:34:30;1.05;;;0.57;;
55601;SDS011;59921;51.332;12.410;2023-04-26T10:37:13;0.50;;;0.50;;
55601;SDS011;59921;51.332;12.410;2023-04-26T10:39:44;0.77;;;0.60;;
55601;SDS011;59921;51.332;12.410;2023-04-26T10:42:26;0.60;;;0.57;;
55601;SDS011;59921;51.332;12.410;2023-04-26T10:44:54;0.57;;;0.50;;
55601;SDS011;59921;51.332;12.410;2023-04-26T10:49:49;0.63;;;0.50;;
55601;SDS011;59921;51.332;12.410;2023-04-26T10:52:19;0.70;;;0.60;;
55601;SDS011;59921;51.332;12.410;2023-04-26T10:54:50;0.68;;;0.50;;
55601;SDS011;59921;51.332;12.410;2023-04-26T10:57:17;0.60;;;0.52;;
55601;SDS011;59921;51.332;12.410;2023-04-26T11:02:43;0.88;;;0.70;;
55601;SDS011;59921;51.332;12.410;2023-04-26T11:08:24;0.52;;;0.50;;
55601;SDS011;59921;51.332;12.410;2023-04-26T11:10:57;0.82;;;0.60;;
55601;SDS011;59921;51.332;12.410;2023-04-26T11:13:23;0.60;;;0.60;;
55601;SDS011;59921;51.332;12.410;2023-04-26T11:15:52;0.57;;;0.55;;
55601;SDS011;59921;51.332;12.410;2023-04-26T11:18:19;0.57;;;0.43;;
55601;SDS011;59921;51.332;12.410;2023-04-26T11:20:45;0.75;;;0.60;;
55601;SDS011;59921;51.332;12.410;2023-04-26T11:23:11;0.50;;;0.47;;
55601;SDS011;59921;51.332;12.410;2023-04-26T11:25:39;0.93;;;0.60;;
55601;SDS011;59921;51.332;12.410;2023-04-26T11:28:05;0.55;;;0.50;;
55601;SDS011;59921;51.332;12.410;2023-04-26T11:30:31;0.70;;;0.60;;
55601;SDS011;59921;51.332;12.410;2023-04-26T11:33:03;1.45;;;0.70;;
55601;SDS011;59921;51.332;12.410;2023-04-26T11:35:31;0.60;;;0.50;;
55601;SDS011;59921;51.332;12.410;2023-04-26T11:37:59;0.77;;;0.50;;
55601;SDS011;59921;51.332;12.410;2023-04-26T11:40:29;0.63;;;0.50;;
55601;SDS011;59921;51.332;12.410;2023-04-26T11:42:59;0.50;;;0.45;;
55601;SDS011;59921;51.332;12.410;2023-04-26T11:45:25;0.50;;;0.50;;
55601;SDS011;59921;51.332;12.410;2023-04-26T11:47:51;1.20;;;0.65;;
55601;SDS011;59921;51.332;12.410;2023-04-26T11:50:17;1.38;;;0.60;;
55601;SDS011;59921;51.332;12.410;2023-04-26T11:52:43;0.70;;;0.50;;
55601;SDS011;59921;51.332;12.410;2023-04-26T11:55:10;1.10;;;0.60;;
55601;SDS011;59921;51.332;12.410;2023-04-26T11:57:35;1.00;;;0.55;;
55601;SDS011;59921;51.332;12.410;2023-04-26T12:00:08;0.52;;;0.52;;
55601;SDS011;59921;51.332;12.410;2023-04-26T12:02:47;1.00;;;0.50;;
55601;SDS011;59921;51.332;12.410;2023-04-26T12:05:23;0.75;;;0.50;;
55601;SDS011;59921;51.332;12.410;2023-04-26T12:07:52;0.50;;;0.50;;
55601;SDS011;59921;51.332;12.410;2023-04-26T12:10:20;0.40;;;0.40;;
55601;SDS011;59921;51.332;12.410;2023-04-26T12:12:57;0.60;;;0.57;;
55601;SDS011;59921;51.332;12.410;2023-04-26T12:15:24;0.70;;;0.55;;
55601;SDS011;59921;51.332;12.410;2023-04-26T12:17:54;0.57;;;0.50;;
55601;SDS011;59921;51.332;12.410;2023-04-26T12:20:27;0.47;;;0.47;;
55601;SDS011;59921;51.332;12.410;2023-04-26T12:22:58;0.80;;;0.50;;
55601;SDS011;59921;51.332;12.410;2023-04-26T12:25:26;0.63;;;0.52;;
55601;SDS011;59921;51.332;12.410;2023-04-26T12:27:52;0.47;;;0.47;;
55601;SDS011;59921;51.332;12.410;2023-04-26T12:30:18;0.68;;;0.60;;
55601;SDS011;59921;51.332;12.410;2023-04-26T12:32:44;0.85;;;0.65;;
55601;SDS011;59921;51.332;12.410;2023-04-26T12:35:10;0.77;;;0.68;;
55601;SDS011;59921;51.332;12.410;2023-04-26T12:37:35;0.90;;;0.50;;
55601;SDS011;59921;51.332;12.410;2023-04-26T12:40:01;0.60;;;0.60;;
55601;SDS011;59921;51.332;12.410;2023-04-26T12:42:27;0.93;;;0.70;;
55601;SDS011;59921;51.332;12.410;2023-04-26T12:44:53;0.50;;;0.50;;
55601;SDS011;59921;51.332;12.410;2023-04-26T12:47:18;1.27;;;0.60;;
55601;SDS011;59921;51.332;12.410;2023-04-26T12:49:44;0.88;;;0.65;;
55601;SDS011;59921;51.332;12.410;2023-04-26T12:52:09;1.00;;;0.60;;
55601;SDS011;59921;51.332;12.410;2023-04-26T12:54:35;0.60;;;0.60;;
55601;SDS011;59921;51.332;12.410;2023-04-26T12:57:00;0.60;;;0.57;;
55601;SDS011;59921;51.332;12.410;2023-04-26T12:59:26;0.88;;;0.60;;
55601;SDS011;59921;51.332;12.410;2023-04-26T13:01:51;0.70;;;0.60;;
55601;SDS011;59921;51.332;12.410;2023-04-26T13:04:17;0.75;;;0.60;;
55601;SDS011;59921;51.332;12.410;2023-04-26T13:06:42;0.57;;;0.50;;
55601;SDS011;59921;51.332;12.410;2023-04-26T13:09:08;0.63;;;0.63;;
55601;SDS011;59921;51.332;12.410;2023-04-26T13:11:36;0.95;;;0.68;;
55601;SDS011;59921;51.332;12.410;2023-04-26T13:14:02;0.63;;;0.52;;
55601;SDS011;59921;51.332;12.410;2023-04-26T13:16:28;1.38;;;0.80;;
55601;SDS011;59921;51.332;12.410;2023-04-26T13:18:53;0.82;;;0.70;;
55601;SDS011;59921;51.332;12.410;2023-04-26T13:21:20;0.60;;;0.60;;
55601;SDS011;59921;51.332;12.410;2023-04-26T13:23:45;0.90;;;0.57;;
55601;SDS011;59921;51.332;12.410;2023-04-26T13:26:11;0.60;;;0.60;;
55601;SDS011;59921;51.332;12.410;2023-04-26T13:28:38;0.73;;;0.50;;
55601;SDS011;59921;51.332;12.410;2023-04-26T13:31:04;0.80;;;0.60;;
55601;SDS011;59921;51.332;12.410;2023-04-26T13:33:30;1.05;;;0.70;;
55601;SDS011;59921;51.332;12.410;2023-04-26T13:35:56;0.70;;;0.60;;
55601;SDS011;59921;51.332;12.410;2023-04-26T13:38:25;1.13;;;0.60;;
55601;SDS011;59921;51.332;12.410;2023-04-26T13:40:50;0.70;;;0.60;;
55601;SDS011;59921;51.332;12.410;2023-04-26T13:43:16;0.50;;;0.40;;
55601;SDS011;59921;51.332;12.410;2023-04-26T13:45:42;0.90;;;0.68;;
55601;SDS011;59921;51.332;12.410;2023-04-26T13:48:07;0.88;;;0.50;;
55601;SDS011;59921;51.332;12.410;2023-04-26T13:50:34;0.55;;;0.55;;
55601;SDS011;59921;51.332;12.410;2023-04-26T13:53:00;1.15;;;0.63;;
55601;SDS011;59921;51.332;12.410;2023-04-26T13:55:26;1.10;;;0.70;;
55601;SDS011;59921;51.332;12.410;2023-04-26T13:57:53;0.90;;;0.70;;
55601;SDS011;59921;51.332;12.410;2023-04-26T14:00:20;0.75;;;0.60;;
55601;SDS011;59921;51.332;12.410;2023-04-26T14:02:47;0.85;;;0.60;;
55601;SDS011;59921;51.332;12.410;2023-04-26T14:05:13;0.70;;;0.63;;
55601;SDS011;59921;51.332;12.410;2023-04-26T14:07:39;0.95;;;0.63;;
55601;SDS011;59921;51.332;12.410;2023-04-26T14:10:05;1.25;;;0.60;;
55601;SDS011;59921;51.332;12.410;2023-04-26T14:12:31;0.80;;;0.70;;
55601;SDS011;59921;51.332;12.410;2023-04-26T14:14:57;0.88;;;0.68;;
55601;SDS011;59921;51.332;12.410;2023-04-26T14:17:26;1.38;;;0.80;;
55601;SDS011;59921;51.332;12.410;2023-04-26T14:19:53;1.10;;;0.70;;
55601;SDS011;59921;51.332;12.410;2023-04-26T14:22:19;1.10;;;0.70;;
55601;SDS011;59921;51.332;12.410;2023-04-26T14:24:45;0.95;;;0.70;;
55601;SDS011;59921;51.332;12.410;2023-04-26T14:27:10;1.30;;;0.85;;
55601;SDS011;59921;51.332;12.410;2023-04-26T14:29:36;1.10;;;0.65;;
55601;SDS011;59921;51.332;12.410;2023-04-26T14:32:01;0.80;;;0.70;;
55601;SDS011;59921;51.332;12.410;2023-04-26T14:34:28;0.90;;;0.75;;
55601;SDS011;59921;51.332;12.410;2023-04-26T14:36:53;1.10;;;0.65;;
55601;SDS011;59921;51.332;12.410;2023-04-26T14:39:19;0.70;;;0.60;;
55601;SDS011;59921;51.332;12.410;2023-04-26T14:41:45;0.63;;;0.60;;
55601;SDS011;59921;51.332;12.410;2023-04-26T14:44:11;0.82;;;0.70;;
55601;SDS011;59921;51.332;12.410;2023-04-26T14:46:36;0.90;;;0.75;;
55601;SDS011;59921;51.332;12.410;2023-04-26T14:49:02;0.90;;;0.80;;
55601;SDS011;59921;51.332;12.410;2023-04-26T14:51:27;1.48;;;0.85;;
55601;SDS011;59921;51.332;12.410;2023-04-26T14:53:53;0.93;;;0.77;;
55601;SDS011;59921;51.332;12.410;2023-04-26T14:56:18;1.10;;;0.80;;
55601;SDS011;59921;51.332;12.410;2023-04-26T14:58:44;0.90;;;0.60;;
55601;SDS011;59921;51.332;12.410;2023-04-26T15:01:09;1.40;;;0.80;;
55601;SDS011;59921;51.332;12.410;2023-04-26T15:03:35;1.40;;;0.80;;